Time;durP1;ratioP1;P1;durP2;ratioP2;P2;SDS_P1;SDS_P2;PMS_P1;PMS_P2;Temp;Humidity;BMP_temperature;BMP_pressure;BME280_temperature;BME280_humidity;BME280_pressure;Samples;Min_cycle;Max_cycle;Signal;HPM_P1;HPM_P2
2021/07/10 00:02:00;;;;;;;1.73;0.50;;;;;;;-142.37;100.00;59669.53;5035059;28;20055;-60
2021/07/10 00:04:27;;;;;;;0.80;0.43;;;;;;;-142.37;100.00;59669.53;5035618;28;20029;-60
2021/07/10 00:06:54;;;;;;;0.93;0.20;;;;;;;-142.37;100.00;59669.53;5035651;28;20427;-61
2021/07/10 00:09:20;;;;;;;1.67;0.28;;;;;;;-142.37;100.00;59669.53;5035599;28;20029;-60
2021/07/10 00:11:45;;;;;;;0.50;0.30;;;;;;;-142.37;100.00;59669.53;5035681;28;20389;-61
2021/07/10 00:14:11;;;;;;;1.58;0.40;;;;;;;-142.37;100.00;59669.53;5035477;28;20029;-60
2021/07/10 00:16:36;;;;;;;0.25;0.20;;;;;;;-142.37;100.00;59669.53;5035255;28;20480;-61
2021/07/10 00:19:02;;;;;;;0.68;0.40;;;;;;;-142.37;100.00;59669.53;5054278;28;20025;-61
2021/07/10 00:21:27;;;;;;;0.90;0.50;;;;;;;-142.37;100.00;59669.53;5055154;28;20029;-60
2021/07/10 00:23:52;;;;;;;1.35;0.30;;;;;;;-142.37;100.00;59669.53;5055314;28;20025;-61
2021/07/10 00:26:18;;;;;;;1.10;0.40;;;;;;;-142.37;100.00;59669.53;5053844;28;20021;-60
2021/07/10 00:28:43;;;;;;;0.88;0.40;;;;;;;-142.37;100.00;59669.53;5055130;28;20479;-60
2021/07/10 00:31:10;;;;;;;1.65;0.40;;;;;;;-142.37;100.00;59669.53;5054795;28;20029;-60
2021/07/10 00:33:35;;;;;;;1.05;0.65;;;;;;;-142.37;100.00;59669.53;5055079;28;20041;-60
2021/07/10 00:36:01;;;;;;;0.38;0.30;;;;;;;-142.37;100.00;59669.53;5055056;28;20025;-60
2021/07/10 00:38:26;;;;;;;1.83;0.30;;;;;;;-142.37;100.00;59669.53;5055054;28;20052;-60
2021/07/10 00:40:52;;;;;;;0.73;0.50;;;;;;;-142.37;100.00;59669.53;5054872;28;20468;-60
2021/07/10 00:43:17;;;;;;;1.05;0.25;;;;;;;-142.37;100.00;59669.53;5054975;28;20525;-60
2021/07/10 00:45:42;;;;;;;1.27;0.30;;;;;;;-142.37;100.00;59669.53;5054910;28;20460;-61
2021/07/10 00:48:08;;;;;;;1.75;0.30;;;;;;;-142.37;100.00;59669.53;5053670;28;20017;-61
2021/07/10 00:50:33;;;;;;;1.75;0.40;;;;;;;-142.37;100.00;59669.53;5034374;28;20076;-61
2021/07/10 00:52:59;;;;;;;0.68;0.30;;;;;;;-142.37;100.00;59669.53;5034395;28;20535;-60
2021/07/10 00:55:24;;;;;;;1.42;0.28;;;;;;;-142.37;100.00;59669.53;5034860;28;20425;-61
2021/07/10 00:57:52;;;;;;;1.23;0.30;;;;;;;-142.37;100.00;59669.53;5034412;28;20022;-61
2021/07/10 01:00:20;;;;;;;0.57;0.40;;;;;;;-142.37;100.00;59669.53;5034719;28;20120;-60
2021/07/10 01:02:47;;;;;;;1.58;0.65;;;;;;;-142.37;100.00;59669.53;5034662;28;20590;-60
2021/07/10 01:05:17;;;;;;;0.93;0.32;;;;;;;-142.37;100.00;59669.53;5034781;28;20053;-60
2021/07/10 01:07:42;;;;;;;1.27;0.85;;;;;;;-142.37;100.00;59669.53;5034698;28;20029;-61
2021/07/10 01:10:09;;;;;;;0.77;0.40;;;;;;;-142.37;100.00;59669.53;5033863;28;20033;-60
2021/07/10 01:12:37;;;;;;;0.80;0.32;;;;;;;-142.37;100.00;59669.53;5034559;28;20242;-60
2021/07/10 01:15:04;;;;;;;1.85;0.50;;;;;;;-142.37;100.00;59669.53;5034097;28;20030;-60
2021/07/10 01:17:30;;;;;;;1.17;0.52;;;;;;;-142.37;100.00;59669.53;5040045;28;20070;-60
2021/07/10 01:20:13;;;;;;;1.17;0.40;;;;;;;-142.37;100.00;59669.53;5034065;28;20464;-60
2021/07/10 01:22:41;;;;;;;0.43;0.30;;;;;;;-142.37;100.00;59669.53;5034450;28;20047;-60
2021/07/10 01:25:11;;;;;;;1.90;0.40;;;;;;;-142.37;100.00;59669.53;5034201;28;20037;-60
2021/07/10 01:27:36;;;;;;;0.95;0.40;;;;;;;-142.37;100.00;59669.53;5033970;28;20032;-60
2021/07/10 01:30:07;;;;;;;0.93;0.38;;;;;;;-142.37;100.00;59669.53;5034253;28;20029;-60
2021/07/10 01:32:33;;;;;;;0.88;0.30;;;;;;;-142.37;100.00;59669.53;5034263;28;20488;-60
2021/07/10 01:34:59;;;;;;;0.60;0.30;;;;;;;-142.37;100.00;59669.53;5033761;28;20083;-60
2021/07/10 01:37:24;;;;;;;0.70;0.50;;;;;;;-142.37;100.00;59669.53;5033692;28;20034;-60
2021/07/10 01:39:50;;;;;;;0.68;0.52;;;;;;;-142.37;100.00;59669.53;5033623;28;20033;-60
2021/07/10 01:42:15;;;;;;;0.80;0.20;;;;;;;-142.37;100.00;59669.53;5033956;28;20029;-60
2021/07/10 01:44:41;;;;;;;0.45;0.28;;;;;;;-142.37;100.00;59669.53;5033950;28;20527;-60
2021/07/10 01:47:06;;;;;;;1.83;0.28;;;;;;;-142.37;100.00;59669.53;5065656;28;20463;-60
2021/07/10 01:49:33;;;;;;;0.40;0.10;;;;;;;-142.37;100.00;59669.53;5033887;28;20833;-60
2021/07/10 01:51:58;;;;;;;0.68;0.30;;;;;;;-142.37;100.00;59669.53;5033795;28;20040;-60
2021/07/10 01:54:24;;;;;;;1.80;0.68;;;;;;;-142.37;100.00;59669.53;5033574;28;20024;-60
2021/07/10 01:56:50;;;;;;;0.30;0.30;;;;;;;-142.37;100.00;59669.53;5033734;28;20033;-60
2021/07/10 01:59:15;;;;;;;4.82;0.30;;;;;;;-142.37;100.00;59669.53;5033432;28;20057;-60
2021/07/10 02:01:46;;;;;;;0.65;0.20;;;;;;;-142.37;100.00;59669.53;5033094;28;20029;-60
2021/07/10 02:04:13;;;;;;;0.40;0.20;;;;;;;-142.37;100.00;59669.53;5033499;28;20033;-60
2021/07/10 02:06:38;;;;;;;0.82;0.25;;;;;;;-142.37;100.00;59669.53;5033599;28;20033;-60
2021/07/10 02:09:04;;;;;;;1.15;0.35;;;;;;;-142.37;100.00;59669.53;5033223;28;20032;-60
2021/07/10 02:11:30;;;;;;;0.80;0.22;;;;;;;-142.37;100.00;59669.53;5051080;28;20035;-60
2021/07/10 02:13:55;;;;;;;0.73;0.30;;;;;;;-142.37;100.00;59669.53;5053510;28;20104;-61
2021/07/10 02:16:20;;;;;;;1.08;0.30;;;;;;;-142.37;100.00;59669.53;5053068;28;20448;-60
2021/07/10 02:18:46;;;;;;;2.28;0.70;;;;;;;-142.37;100.00;59669.53;5036168;28;20410;-59
2021/07/10 02:21:11;;;;;;;0.63;0.40;;;;;;;-142.37;100.00;59669.53;5033486;28;20417;-60
2021/07/10 02:23:36;;;;;;;0.30;0.20;;;;;;;-142.37;100.00;59669.53;5033348;28;20021;-60
2021/07/10 02:26:02;;;;;;;0.40;0.20;;;;;;;-142.37;100.00;59669.53;5033181;28;20028;-60
2021/07/10 02:28:27;;;;;;;0.35;0.30;;;;;;;-142.37;100.00;59669.53;5033177;28;20063;-60
2021/07/10 02:30:53;;;;;;;1.42;0.30;;;;;;;-142.37;100.00;59669.53;5033014;28;20024;-60
2021/07/10 02:33:18;;;;;;;1.05;0.50;;;;;;;-142.37;100.00;59669.53;5032891;28;20040;-60
2021/07/10 02:35:44;;;;;;;0.60;0.30;;;;;;;-142.37;100.00;59669.53;5032986;28;20057;-60
2021/07/10 02:38:10;;;;;;;1.67;0.50;;;;;;;-142.37;100.00;59669.53;5032970;28;20014;-60
2021/07/10 02:40:36;;;;;;;1.50;0.32;;;;;;;-142.37;100.00;59669.53;5032871;28;20036;-60
2021/07/10 02:43:02;;;;;;;1.42;0.50;;;;;;;-142.37;100.00;59669.53;5033110;28;20022;-60
2021/07/10 02:45:28;;;;;;;0.40;0.20;;;;;;;-142.37;100.00;59669.53;5033095;28;20021;-60
2021/07/10 02:47:54;;;;;;;0.45;0.25;;;;;;;-142.37;100.00;59669.53;5032813;28;20033;-60
2021/07/10 02:50:24;;;;;;;1.67;0.30;;;;;;;-142.37;100.00;59669.53;5036944;28;20036;-60
2021/07/10 02:52:51;;;;;;;0.57;0.38;;;;;;;-142.37;100.00;59669.53;5037170;28;20469;-60
2021/07/10 02:55:16;;;;;;;1.27;0.40;;;;;;;-142.37;100.00;59669.53;5036913;28;20071;-60
2021/07/10 02:57:42;;;;;;;1.08;0.45;;;;;;;-142.37;100.00;59669.53;5037159;28;20029;-59
2021/07/10 03:00:11;;;;;;;1.85;0.25;;;;;;;-142.37;100.00;59669.53;5036460;28;20091;-60
2021/07/10 03:02:36;;;;;;;0.88;0.47;;;;;;;-142.37;100.00;59669.53;5037009;28;20548;-60
2021/07/10 03:05:03;;;;;;;0.88;0.30;;;;;;;-142.37;100.00;59669.53;5036431;28;20029;-60
2021/07/10 03:07:28;;;;;;;0.77;0.40;;;;;;;-142.37;100.00;59669.53;5036676;28;20021;-60
2021/07/10 03:09:54;;;;;;;0.90;0.30;;;;;;;-142.37;100.00;59669.53;5036498;28;20709;-60
2021/07/10 03:12:19;;;;;;;0.93;0.38;;;;;;;-142.37;100.00;59669.53;5036796;28;20036;-60
2021/07/10 03:14:44;;;;;;;1.65;0.47;;;;;;;-142.37;100.00;59669.53;5036674;28;20028;-60
2021/07/10 03:17:10;;;;;;;2.08;0.35;;;;;;;-142.37;100.00;59669.53;5040444;28;20032;-60
2021/07/10 03:19:35;;;;;;;0.57;0.32;;;;;;;-142.37;100.00;59669.53;5056559;28;20037;-60
2021/07/10 03:22:00;;;;;;;0.30;0.17;;;;;;;-142.37;100.00;59669.53;5056344;28;20386;-60
2021/07/10 03:24:26;;;;;;;0.55;0.38;;;;;;;-142.37;100.00;59669.53;5056278;28;20028;-60
2021/07/10 03:26:51;;;;;;;0.20;0.20;;;;;;;-142.37;100.00;59669.53;5056485;28;20378;-60
2021/07/10 03:29:16;;;;;;;0.32;0.30;;;;;;;-142.37;100.00;59669.53;5056341;28;20021;-60
2021/07/10 03:31:42;;;;;;;1.05;0.20;;;;;;;-142.37;100.00;59669.53;5056286;28;20025;-60
2021/07/10 03:34:07;;;;;;;1.13;0.32;;;;;;;-142.37;100.00;59669.53;5055859;28;20104;-60
2021/07/10 03:36:33;;;;;;;1.00;0.40;;;;;;;-142.37;100.00;59669.53;5056357;28;20024;-60
2021/07/10 03:38:58;;;;;;;0.85;0.30;;;;;;;-142.37;100.00;59669.53;5056050;28;20023;-60
2021/07/10 03:41:23;;;;;;;0.75;0.40;;;;;;;-142.37;100.00;59669.53;5056308;28;20371;-60
2021/07/10 03:43:49;;;;;;;0.52;0.32;;;;;;;-142.37;100.00;59669.53;5056356;28;20105;-60
2021/07/10 03:46:14;;;;;;;0.60;0.30;;;;;;;-142.37;100.00;59669.53;5055745;28;20056;-60
2021/07/10 03:48:39;;;;;;;0.40;0.30;;;;;;;-142.37;100.00;59669.53;5055780;28;20083;-60
2021/07/10 03:51:06;;;;;;;0.65;0.38;;;;;;;-142.37;100.00;59669.53;5055271;28;20471;-60
2021/07/10 03:53:33;;;;;;;0.75;0.50;;;;;;;-142.37;100.00;59669.53;5051046;28;20083;-60
2021/07/10 03:55:59;;;;;;;1.67;0.25;;;;;;;-142.37;100.00;59669.53;5054556;28;20112;-59
2021/07/10 03:58:25;;;;;;;0.98;0.47;;;;;;;-142.37;100.00;59669.53;5054071;28;20048;-60
2021/07/10 04:00:50;;;;;;;1.10;0.30;;;;;;;-142.37;100.00;59669.53;5055309;28;20025;-60
2021/07/10 04:03:15;;;;;;;1.13;0.30;;;;;;;-142.37;100.00;59669.53;5055409;28;20403;-61
2021/07/10 04:05:42;;;;;;;2.05;0.55;;;;;;;-142.37;100.00;59669.53;5055694;28;20025;-60
2021/07/10 04:08:07;;;;;;;0.68;0.30;;;;;;;-142.37;100.00;59669.53;5046210;28;20029;-60
2021/07/10 04:10:32;;;;;;;0.95;0.40;;;;;;;-142.37;100.00;59669.53;5038186;28;20384;-60
2021/07/10 04:12:58;;;;;;;0.45;0.30;;;;;;;-142.37;100.00;59669.53;5055468;28;20337;-60
2021/07/10 04:15:24;;;;;;;0.80;0.45;;;;;;;-142.37;100.00;59669.53;5055599;28;20071;-60
2021/07/10 04:17:49;;;;;;;2.55;0.50;;;;;;;-142.37;100.00;59669.53;5046331;28;20024;-60
2021/07/10 04:20:17;;;;;;;0.50;0.20;;;;;;;-142.37;100.00;59669.53;5034790;28;20033;-60
2021/07/10 04:22:43;;;;;;;0.20;0.20;;;;;;;-142.37;100.00;59669.53;5035402;28;20029;-60
2021/07/10 04:25:15;;;;;;;0.52;0.45;;;;;;;-142.37;100.00;59669.53;5035112;28;20033;-60
2021/07/10 04:27:44;;;;;;;0.60;0.40;;;;;;;-142.37;100.00;59669.53;5035213;28;20021;-60
2021/07/10 04:30:10;;;;;;;0.30;0.30;;;;;;;-142.37;100.00;59669.53;5049545;28;20120;-60
2021/07/10 04:32:36;;;;;;;1.17;0.60;;;;;;;-142.37;100.00;59669.53;5051642;28;20025;-60
2021/07/10 04:35:01;;;;;;;4.70;0.55;;;;;;;-142.37;100.00;59669.53;5036339;28;20077;-60
2021/07/10 04:37:26;;;;;;;0.32;0.30;;;;;;;-142.37;100.00;59669.53;5035067;28;20072;-60
2021/07/10 04:39:52;;;;;;;1.15;0.38;;;;;;;-142.37;100.00;59669.53;5034930;28;20025;-60
2021/07/10 04:42:17;;;;;;;0.45;0.43;;;;;;;-142.37;100.00;59669.53;5035023;28;20013;-60
2021/07/10 04:44:43;;;;;;;1.27;0.65;;;;;;;-142.37;100.00;59669.53;5035276;28;20026;-60
2021/07/10 04:47:09;;;;;;;0.75;0.30;;;;;;;-142.37;100.00;59669.53;5034706;28;20057;-60
2021/07/10 04:49:35;;;;;;;1.55;0.30;;;;;;;-142.37;100.00;59669.53;5034963;28;20033;-60
2021/07/10 04:52:01;;;;;;;1.08;0.30;;;;;;;-142.37;100.00;59669.53;5034810;28;20025;-60
2021/07/10 04:54:27;;;;;;;1.60;0.57;;;;;;;-142.37;100.00;59669.53;5034628;28;20554;-60
2021/07/10 04:56:52;;;;;;;0.85;0.30;;;;;;;-142.37;100.00;59669.53;5034859;28;20034;-60
2021/07/10 04:59:17;;;;;;;0.40;0.30;;;;;;;-142.37;100.00;59669.53;5037853;28;20176;-60
2021/07/10 05:01:43;;;;;;;1.95;0.57;;;;;;;-142.37;100.00;59669.53;5053814;28;20044;-60
2021/07/10 05:04:08;;;;;;;0.63;0.60;;;;;;;-142.37;100.00;59669.53;5054616;28;20067;-60
2021/07/10 05:06:33;;;;;;;0.98;0.43;;;;;;;-142.37;100.00;59669.53;5048436;28;20052;-60
2021/07/10 05:09:00;;;;;;;0.70;0.32;;;;;;;-142.37;100.00;59669.53;5034478;28;20028;-60
2021/07/10 05:11:25;;;;;;;0.75;0.50;;;;;;;-142.37;100.00;59669.53;5033939;28;20021;-60
2021/07/10 05:13:50;;;;;;;0.70;0.47;;;;;;;-142.37;100.00;59669.53;5034458;28;20087;-60
2021/07/10 05:16:16;;;;;;;3.90;0.43;;;;;;;-142.37;100.00;59669.53;5034246;28;20419;-60
2021/07/10 05:18:41;;;;;;;1.88;0.52;;;;;;;-142.37;100.00;59669.53;5050150;28;20025;-60
2021/07/10 05:21:06;;;;;;;0.85;0.50;;;;;;;-142.37;100.00;59669.53;5054247;28;20568;-60
2021/07/10 05:23:32;;;;;;;0.22;0.20;;;;;;;-142.37;100.00;59669.53;5054295;28;20464;-60
2021/07/10 05:25:57;;;;;;;1.23;0.38;;;;;;;-142.37;100.00;59669.53;5054107;28;20021;-60
2021/07/10 05:28:22;;;;;;;0.70;0.60;;;;;;;-142.37;100.00;59669.53;5053715;28;20078;-60
2021/07/10 05:30:49;;;;;;;0.50;0.30;;;;;;;-142.37;100.00;59669.53;5054407;28;20028;-61
2021/07/10 05:33:16;;;;;;;1.10;0.30;;;;;;;-142.37;100.00;59669.53;5054116;28;20119;-60
2021/07/10 05:35:44;;;;;;;0.73;0.32;;;;;;;-142.37;100.00;59669.53;5054125;28;20038;-60
2021/07/10 05:38:10;;;;;;;0.43;0.30;;;;;;;-142.37;100.00;59669.53;5054124;28;20017;-60
2021/07/10 05:40:36;;;;;;;0.80;0.40;;;;;;;-142.37;100.00;59669.53;5054076;28;20025;-60
2021/07/10 05:43:02;;;;;;;0.65;0.38;;;;;;;-142.37;100.00;59669.53;5053547;28;20468;-60
2021/07/10 05:45:27;;;;;;;1.02;0.40;;;;;;;-142.37;100.00;59669.53;5053726;28;20029;-60
2021/07/10 05:47:52;;;;;;;1.92;0.57;;;;;;;-142.37;100.00;59669.53;5053318;28;20075;-60
2021/07/10 05:50:19;;;;;;;2.70;0.43;;;;;;;-142.37;100.00;59669.53;5053784;28;20440;-60
2021/07/10 05:52:44;;;;;;;0.82;0.30;;;;;;;-142.37;100.00;59669.53;5053631;28;20649;-60
2021/07/10 05:55:10;;;;;;;2.15;0.73;;;;;;;-142.37;100.00;59669.53;5053528;28;20109;-60
2021/07/10 05:57:35;;;;;;;0.88;0.50;;;;;;;-142.37;100.00;59669.53;5053402;28;20025;-60
2021/07/10 06:00:01;;;;;;;0.85;0.50;;;;;;;-142.37;100.00;59669.53;5053032;28;20041;-60
2021/07/10 06:02:26;;;;;;;0.63;0.40;;;;;;;-142.37;100.00;59669.53;5053418;28;20040;-60
2021/07/10 06:04:51;;;;;;;1.20;0.50;;;;;;;-142.37;100.00;59669.53;5053503;28;20064;-59
2021/07/10 06:07:17;;;;;;;1.00;0.40;;;;;;;-142.37;100.00;59669.53;5053343;28;20107;-60
2021/07/10 06:09:42;;;;;;;0.65;0.38;;;;;;;-142.37;100.00;59669.53;5053542;28;20028;-61
2021/07/10 06:12:08;;;;;;;0.80;0.60;;;;;;;-142.37;100.00;59669.53;5053354;28;20051;-60
2021/07/10 06:14:34;;;;;;;0.68;0.60;;;;;;;-142.37;100.00;59669.53;5053244;28;20035;-60
2021/07/10 06:17:00;;;;;;;0.40;0.40;;;;;;;-142.37;100.00;59669.53;5050613;28;20482;-60
2021/07/10 06:19:25;;;;;;;1.20;0.68;;;;;;;-142.37;100.00;59669.53;5033188;28;20491;-60
2021/07/10 06:21:51;;;;;;;0.77;0.50;;;;;;;-142.37;100.00;59669.53;5033382;28;20104;-60
2021/07/10 06:24:16;;;;;;;1.05;0.57;;;;;;;-142.37;100.00;59669.53;5033100;28;20036;-60
2021/07/10 06:26:42;;;;;;;0.93;0.50;;;;;;;-142.37;100.00;59669.53;5033401;28;20414;-60
2021/07/10 06:29:07;;;;;;;1.85;0.68;;;;;;;-142.37;100.00;59669.53;5032805;28;20036;-60
2021/07/10 06:31:32;;;;;;;1.95;0.70;;;;;;;-142.37;100.00;59669.53;5032987;28;20032;-60
2021/07/10 06:34:00;;;;;;;1.77;0.88;;;;;;;-142.37;100.00;59669.53;5033095;28;20029;-60
2021/07/10 06:36:26;;;;;;;1.38;0.50;;;;;;;-142.37;100.00;59669.53;5032926;28;20377;-60
2021/07/10 06:38:52;;;;;;;0.93;0.60;;;;;;;-142.37;100.00;59669.53;5032861;28;20104;-60
2021/07/10 06:41:17;;;;;;;0.57;0.47;;;;;;;-142.37;100.00;59669.53;5032793;28;20526;-60
2021/07/10 06:43:43;;;;;;;2.60;0.70;;;;;;;-142.37;100.00;59669.53;5033227;28;20029;-60
2021/07/10 06:46:09;;;;;;;1.55;0.60;;;;;;;-142.37;100.00;59669.53;5032950;28;20028;-60
2021/07/10 06:48:35;;;;;;;0.40;0.40;;;;;;;-142.37;100.00;59669.53;5033036;28;20053;-60
2021/07/10 06:51:00;;;;;;;0.50;0.40;;;;;;;-142.37;100.00;59669.53;5032902;28;20084;-61
2021/07/10 06:53:26;;;;;;;1.13;0.85;;;;;;;-142.37;100.00;59669.53;5033050;28;20033;-60
2021/07/10 06:55:52;;;;;;;0.85;0.50;;;;;;;-142.37;100.00;59669.53;5032605;28;20043;-60
2021/07/10 06:58:18;;;;;;;1.08;0.65;;;;;;;-142.37;100.00;59669.53;5032418;28;20118;-60
2021/07/10 07:00:45;;;;;;;1.13;0.68;;;;;;;-142.37;100.00;59669.53;5032915;28;20021;-60
2021/07/10 07:03:10;;;;;;;0.85;0.60;;;;;;;-142.37;100.00;59669.53;5032576;28;20029;-60
2021/07/10 07:05:36;;;;;;;0.98;0.52;;;;;;;-142.37;100.00;59669.53;5032873;28;20029;-60
2021/07/10 07:08:01;;;;;;;0.30;0.30;;;;;;;-142.37;100.00;59669.53;5032676;28;20026;-60
2021/07/10 07:10:26;;;;;;;1.23;0.32;;;;;;;-142.37;100.00;59669.53;5033041;28;20029;-60
2021/07/10 07:12:52;;;;;;;1.13;0.65;;;;;;;-142.37;100.00;59669.53;5032858;28;20431;-60
2021/07/10 07:15:17;;;;;;;1.52;0.40;;;;;;;-142.37;100.00;59669.53;5032764;28;20411;-60
2021/07/10 07:17:44;;;;;;;0.60;0.47;;;;;;;-142.37;100.00;59669.53;5032751;28;20100;-60
2021/07/10 07:20:13;;;;;;;1.25;0.55;;;;;;;-142.37;100.00;59669.53;5032336;28;20028;-60
2021/07/10 07:22:43;;;;;;;1.73;0.50;;;;;;;-142.37;100.00;59669.53;5032575;28;20121;-60
2021/07/10 07:25:09;;;;;;;1.02;0.70;;;;;;;-142.37;100.00;59669.53;5032672;28;20022;-60
2021/07/10 07:27:34;;;;;;;0.70;0.50;;;;;;;-142.37;100.00;59669.53;5032595;28;20068;-60
2021/07/10 07:30:00;;;;;;;0.90;0.50;;;;;;;-142.37;100.00;59669.53;5032538;28;20072;-60
2021/07/10 07:32:25;;;;;;;0.90;0.50;;;;;;;-142.37;100.00;59669.53;5032836;28;20037;-60
2021/07/10 07:34:50;;;;;;;0.38;0.28;;;;;;;-142.37;100.00;59669.53;5034001;28;20627;-60
2021/07/10 07:37:17;;;;;;;2.05;0.70;;;;;;;-142.37;100.00;59669.53;5036331;28;20028;-60
2021/07/10 07:39:46;;;;;;;0.75;0.40;;;;;;;-142.37;100.00;59669.53;5036201;28;20068;-60
2021/07/10 07:42:13;;;;;;;0.82;0.40;;;;;;;-142.37;100.00;59669.53;5035886;28;20034;-60
2021/07/10 07:44:40;;;;;;;0.85;0.50;;;;;;;-142.37;100.00;59669.53;5036081;28;20025;-60
2021/07/10 07:47:07;;;;;;;1.17;0.40;;;;;;;-142.37;100.00;59669.53;5036077;28;20036;-60
2021/07/10 07:49:33;;;;;;;0.40;0.40;;;;;;;-142.37;100.00;59669.53;5036105;28;20499;-60
2021/07/10 07:51:58;;;;;;;0.32;0.22;;;;;;;-142.37;100.00;59669.53;5045691;28;20029;-60
2021/07/10 07:54:25;;;;;;;0.93;0.40;;;;;;;-142.37;100.00;59669.53;5055761;28;20166;-60
2021/07/10 07:56:50;;;;;;;0.75;0.47;;;;;;;-142.37;100.00;59669.53;5054687;28;20529;-60
2021/07/10 07:59:16;;;;;;;0.38;0.38;;;;;;;-142.37;100.00;59669.53;5054377;28;20127;-60
2021/07/10 08:01:41;;;;;;;1.08;0.43;;;;;;;-142.37;100.00;59669.53;5055846;28;20363;-59
2021/07/10 08:04:06;;;;;;;1.58;0.47;;;;;;;-142.37;100.00;59669.53;5054860;28;20033;-59
2021/07/10 08:06:32;;;;;;;2.33;0.40;;;;;;;-142.37;100.00;59669.53;5055836;28;20021;-59
2021/07/10 08:08:57;;;;;;;0.40;0.30;;;;;;;-142.37;100.00;59669.53;5055729;28;20475;-59
2021/07/10 08:11:23;;;;;;;0.50;0.50;;;;;;;-142.37;100.00;59669.53;5054929;28;20033;-59
2021/07/10 08:13:48;;;;;;;1.33;0.35;;;;;;;-142.37;100.00;59669.53;5054805;28;20029;-59
2021/07/10 08:16:14;;;;;;;0.43;0.20;;;;;;;-142.37;100.00;59669.53;5055704;28;20048;-60
2021/07/10 08:18:39;;;;;;;1.25;0.38;;;;;;;-142.37;100.00;59669.53;5055634;28;20104;-60
2021/07/10 08:21:05;;;;;;;1.55;0.30;;;;;;;-142.37;100.00;59669.53;5036121;28;20056;-59
2021/07/10 08:23:30;;;;;;;1.00;0.30;;;;;;;-142.37;100.00;59669.53;5035472;28;20057;-59
2021/07/10 08:25:55;;;;;;;0.30;0.28;;;;;;;-142.37;100.00;59669.53;5035431;28;20387;-59
2021/07/10 08:28:21;;;;;;;0.30;0.20;;;;;;;-142.37;100.00;59669.53;5055132;28;20025;-59
2021/07/10 08:30:46;;;;;;;0.77;0.43;;;;;;;-142.37;100.00;59669.53;5055475;28;20025;-59
2021/07/10 08:33:12;;;;;;;0.88;0.40;;;;;;;-142.37;100.00;59669.53;5055097;28;20051;-59
2021/07/10 08:35:38;;;;;;;0.88;0.40;;;;;;;-142.37;100.00;59669.53;5055297;28;20368;-59
2021/07/10 08:38:03;;;;;;;1.38;0.40;;;;;;;-142.37;100.00;59669.53;5055032;28;20017;-59
2021/07/10 08:40:28;;;;;;;0.65;0.38;;;;;;;-142.37;100.00;59669.53;5055159;28;20028;-59
2021/07/10 08:42:54;;;;;;;0.75;0.40;;;;;;;-142.37;100.00;59669.53;5054938;28;20025;-59
2021/07/10 08:45:19;;;;;;;0.57;0.30;;;;;;;-142.37;100.00;59669.53;5054761;28;20029;-59
2021/07/10 08:47:45;;;;;;;0.75;0.30;;;;;;;-142.37;100.00;59669.53;5054012;28;20478;-60
2021/07/10 08:50:17;;;;;;;1.02;0.50;;;;;;;-142.37;100.00;59669.53;5054742;28;20028;-60
2021/07/10 08:52:43;;;;;;;1.10;0.32;;;;;;;-142.37;100.00;59669.53;5055081;28;20024;-59
2021/07/10 08:55:12;;;;;;;2.03;0.50;;;;;;;-142.37;100.00;59669.53;5054781;28;20071;-59
2021/07/10 08:57:38;;;;;;;1.48;0.47;;;;;;;-142.37;100.00;59669.53;5061123;23;20032;-60
2021/07/10 09:00:10;;;;;;;0.38;0.10;;;;;;;-142.37;100.00;59669.53;5022757;28;20037;-59
2021/07/10 09:02:39;;;;;;;0.63;0.30;;;;;;;-142.37;100.00;59669.53;5013889;28;20030;-60
2021/07/10 09:05:05;;;;;;;1.60;0.40;;;;;;;-142.37;100.00;59669.53;5014657;28;20076;-59
2021/07/10 09:07:30;;;;;;;0.93;0.45;;;;;;;-142.37;100.00;59669.53;5014771;28;20030;-59
2021/07/10 09:09:57;;;;;;;0.73;0.32;;;;;;;-142.37;100.00;59669.53;5014858;28;20033;-59
2021/07/10 09:12:30;;;;;;;1.52;0.63;;;;;;;-142.37;100.00;59669.53;5014833;28;20021;-59
2021/07/10 09:15:16;;;;;;;0.70;0.32;;;;;;;-142.37;100.00;59669.53;5014814;28;20026;-59
2021/07/10 09:17:46;;;;;;;0.70;0.40;;;;;;;-142.37;100.00;59669.53;5022043;28;20041;-59
2021/07/10 09:20:27;;;;;;;0.63;0.32;;;;;;;-142.37;100.00;59669.53;5034502;28;20099;-59
2021/07/10 09:22:53;;;;;;;1.65;0.47;;;;;;;-142.37;100.00;59669.53;5034418;28;20025;-59
2021/07/10 09:25:32;;;;;;;0.70;0.40;;;;;;;-142.37;100.00;59669.53;5034323;28;20036;-59
2021/07/10 09:28:00;;;;;;;0.80;0.30;;;;;;;-142.37;100.00;59669.53;5034217;28;20377;-59
2021/07/10 09:30:35;;;;;;;1.52;0.40;;;;;;;-142.37;100.00;59669.53;5034434;28;20376;-59
2021/07/10 09:33:19;;;;;;;1.40;0.40;;;;;;;-142.37;100.00;59669.53;5033996;28;20067;-59
2021/07/10 09:35:55;;;;;;;;;;;;;;;-142.37;100.00;59669.53;5034651;28;20022;-60
2021/07/10 09:38:26;;;;;;;4.13;0.82;;;;;;;-142.37;100.00;59669.53;5034040;28;19951;-59
2021/07/10 09:40:57;;;;;;;1.05;0.30;;;;;;;-142.37;100.00;59669.53;5034057;28;20522;-59
2021/07/10 09:43:24;;;;;;;0.60;0.28;;;;;;;-142.37;100.00;59669.53;5034091;28;20388;-59
2021/07/10 09:45:49;;;;;;;1.05;0.50;;;;;;;-142.37;100.00;59669.53;5033926;28;20071;-60
2021/07/10 09:48:14;;;;;;;0.55;0.25;;;;;;;-142.37;100.00;59669.53;5033650;28;20524;-59
2021/07/10 09:50:40;;;;;;;0.55;0.30;;;;;;;-142.37;100.00;59669.53;5023029;28;20025;-59
2021/07/10 09:53:20;;;;;;;1.50;0.45;;;;;;;-142.37;100.00;59669.53;5013539;28;20018;-59
2021/07/10 09:55:45;;;;;;;0.50;0.10;;;;;;;-142.37;100.00;59669.53;5014095;28;20117;-59
2021/07/10 09:58:12;;;;;;;1.48;0.38;;;;;;;-142.37;100.00;59669.53;5013510;28;20108;-60
2021/07/10 10:00:39;;;;;;;0.57;0.30;;;;;;;-142.37;100.00;59669.53;5009226;28;20038;-59
2021/07/10 10:03:05;;;;;;;0.52;0.30;;;;;;;-142.37;100.00;59669.53;4994228;28;20037;-60
2021/07/10 10:05:33;;;;;;;0.55;0.30;;;;;;;-142.37;100.00;59669.53;4994411;28;20034;-60
2021/07/10 10:08:04;;;;;;;1.67;0.40;;;;;;;-142.37;100.00;59669.53;4993236;28;20412;-59
2021/07/10 10:10:31;;;;;;;1.60;0.50;;;;;;;-142.37;100.00;59669.53;4993555;28;20058;-59
2021/07/10 10:13:08;;;;;;;0.60;0.47;;;;;;;-142.37;100.00;59669.53;4994274;28;20026;-60
2021/07/10 10:15:40;;;;;;;0.93;0.35;;;;;;;-142.37;100.00;59669.53;4994215;28;20037;-59
2021/07/10 10:18:06;;;;;;;0.88;0.47;;;;;;;-142.37;100.00;59669.53;5005399;28;20026;-59
2021/07/10 10:20:32;;;;;;;0.73;0.20;;;;;;;-142.37;100.00;59669.53;5013688;28;20026;-59
2021/07/10 10:22:59;;;;;;;1.02;0.47;;;;;;;-142.37;100.00;59669.53;5013476;28;20032;-59
2021/07/10 10:25:25;;;;;;;0.75;0.20;;;;;;;-142.37;100.00;59669.53;5013659;28;20076;-59
2021/07/10 10:27:52;;;;;;;1.85;0.40;;;;;;;-142.37;100.00;59669.53;5013603;28;20026;-59
2021/07/10 10:30:19;;;;;;;0.60;0.30;;;;;;;-142.37;100.00;59669.53;5006183;28;20057;-60
2021/07/10 10:32:45;;;;;;;0.40;0.30;;;;;;;-142.37;100.00;59669.53;4994651;28;20058;-59
2021/07/10 10:35:12;;;;;;;0.35;0.30;;;;;;;-142.37;100.00;59669.53;5013396;28;20025;-60
2021/07/10 10:37:38;;;;;;;1.05;0.52;;;;;;;-142.37;100.00;59669.53;5013457;28;20018;-60
2021/07/10 10:40:19;;;;;;;0.30;0.30;;;;;;;-142.37;100.00;59669.53;5013379;28;20041;-60
2021/07/10 10:42:50;;;;;;;1.33;0.30;;;;;;;-142.37;100.00;59669.53;5013424;28;20058;-60
2021/07/10 10:45:16;;;;;;;1.42;0.50;;;;;;;-142.37;100.00;59669.53;5013448;28;20037;-61
2021/07/10 10:47:52;;;;;;;2.25;0.43;;;;;;;-142.37;100.00;59669.53;5013101;28;20026;-60
2021/07/10 10:50:23;;;;;;;0.68;0.40;;;;;;;-142.37;100.00;59669.53;5012372;28;20029;-60
2021/07/10 10:52:52;;;;;;;1.02;0.45;;;;;;;-142.37;100.00;59669.53;5012086;28;20030;-60
2021/07/10 10:55:21;;;;;;;0.85;0.30;;;;;;;-142.37;100.00;59669.53;5009503;28;20029;-60
2021/07/10 10:57:48;;;;;;;1.67;0.35;;;;;;;-142.37;100.00;59669.53;5011900;28;20030;-60
2021/07/10 11:00:18;;;;;;;1.38;0.65;;;;;;;-142.37;100.00;59669.53;5011322;28;20030;-59
2021/07/10 11:02:49;;;;;;;2.10;0.52;;;;;;;-142.37;100.00;59669.53;5004848;28;20022;-60
2021/07/10 11:05:16;;;;;;;1.10;0.50;;;;;;;-142.37;100.00;59669.53;5013127;28;20030;-60
2021/07/10 11:07:41;;;;;;;1.30;0.50;;;;;;;-142.37;100.00;59669.53;5013335;28;20052;-60